Terminal Aerodrome Forecast
Issued by NWS

Current Version | Previous Version | Text Only | Print | Product List | Glossary On
Versions: 1 2 3 4 5 6 7 8 9 10 11 12 13
000
FTUS43 KEAX 241720
TAFMKC
TAF
KMKC 241720Z 2418/2518 21016G22KT P6SM SKC
     FM242300 23008KT P6SM SCT250
     FM250700 35009KT P6SM FEW250=

USA.gov is the U.S. government's official web portal to all federal, state and local government web resources and services.